Time;durP1;ratioP1;P1;durP2;ratioP2;P2;SDS_P1;SDS_P2;PMS_P1;PMS_P2;Temp;Humidity;BMP_temperature;BMP_pressure;BME280_temperature;BME280_humidity;BME280_pressure;Samples;Min_cycle;Max_cycle;Signal;HPM_P1;HPM_P2
2023/10/11 00:00:59;;;;;;;17.17;8.93;;;15.90;84.20;;;;;;5012553;28;20454;-49
2023/10/11 00:05:56;;;;;;;15.38;9.52;;;15.80;84.30;;;;;;5032130;28;20036;-48
2023/10/11 00:08:39;;;;;;;12.07;7.57;;;15.80;84.40;;;;;;5017629;28;20041;-48
2023/10/11 00:11:19;;;;;;;13.50;8.48;;;15.80;84.40;;;;;;5013898;28;20339;-50
2023/10/11 00:13:46;;;;;;;11.63;8.32;;;15.80;84.60;;;;;;5028130;28;20080;-49
2023/10/11 00:16:17;;;;;;;10.65;7.55;;;15.70;84.70;;;;;;5032390;28;20025;-47
2023/10/11 00:18:49;;;;;;;14.65;9.82;;;15.70;85.10;;;;;;5015210;28;20356;-48
2023/10/11 00:21:17;;;;;;;22.45;8.80;;;15.70;85.10;;;;;;5016686;28;20045;-51
2023/10/11 00:23:48;;;;;;;15.90;8.73;;;15.60;85.50;;;;;;5021011;28;20101;-50
2023/10/11 00:26:14;;;;;;;16.65;9.35;;;15.60;85.50;;;;;;5034719;28;20493;-48
2023/10/11 00:28:41;;;;;;;14.77;8.75;;;15.60;85.60;;;;;;5017365;28;20072;-48
2023/10/11 00:31:17;;;;;;;14.15;9.45;;;15.60;85.80;;;;;;5016101;28;20041;-50
2023/10/11 00:33:43;;;;;;;18.63;9.52;;;15.60;85.90;;;;;;4996348;28;20460;-48
2023/10/11 00:36:11;;;;;;;16.30;9.75;;;15.50;86.10;;;;;;4998381;28;20049;-49
2023/10/11 00:38:50;;;;;;;12.40;9.13;;;15.50;86.20;;;;;;5015755;28;20053;-48
2023/10/11 00:41:21;;;;;;;22.23;9.57;;;15.50;86.40;;;;;;5015680;28;20097;-51
2023/10/11 00:43:52;;;;;;;13.70;9.23;;;15.40;86.60;;;;;;5033106;28;20048;-49
2023/10/11 00:46:26;;;;;;;13.05;8.68;;;15.50;87.00;;;;;;5034632;28;20036;-50
2023/10/11 00:51:20;;;;;;;17.02;10.57;;;15.40;87.30;;;;;;5033668;28;20474;-49
2023/10/11 00:53:49;;;;;;;22.50;10.23;;;15.40;87.40;;;;;;5017463;28;20048;-48
2023/10/11 00:56:22;;;;;;;15.88;10.52;;;15.50;87.60;;;;;;5021674;28;20049;-47
2023/10/11 00:58:52;;;;;;;18.75;10.27;;;15.50;87.60;;;;;;5015121;28;20064;-49
2023/10/11 01:01:22;;;;;;;18.80;10.68;;;15.50;87.80;;;;;;4998614;28;20026;-48
2023/10/11 01:03:48;;;;;;;16.20;9.55;;;15.50;87.90;;;;;;5022643;28;20018;-49
2023/10/11 01:06:14;;;;;;;14.88;9.80;;;15.40;88.10;;;;;;5015809;28;20086;-48
2023/10/11 01:08:42;;;;;;;16.13;10.52;;;15.50;88.30;;;;;;5034342;28;20373;-48
2023/10/11 01:11:14;;;;;;;28.52;12.00;;;15.50;88.50;;;;;;5034553;28;20045;-49
2023/10/11 01:13:50;;;;;;;16.45;11.23;;;15.40;88.50;;;;;;5014284;28;20376;-48
2023/10/11 01:16:26;;;;;;;21.40;12.63;;;15.40;88.60;;;;;;5014241;28;20038;-48
2023/10/11 01:18:54;;;;;;;19.38;12.15;;;15.40;88.80;;;;;;5013965;28;20462;-48
2023/10/11 01:21:21;;;;;;;13.45;10.93;;;15.40;89.10;;;;;;5015052;28;20029;-47
2023/10/11 01:23:48;;;;;;;16.50;11.70;;;15.40;89.10;;;;;;5014722;28;20014;-48
2023/10/11 01:26:17;;;;;;;23.85;11.90;;;15.40;89.10;;;;;;5006881;28;20031;-51
2023/10/11 01:28:45;;;;;;;19.35;12.43;;;15.40;89.40;;;;;;4995330;28;20499;-48
2023/10/11 01:31:16;;;;;;;17.90;13.43;;;15.40;89.50;;;;;;4995110;28;20038;-47
2023/10/11 01:33:49;;;;;;;19.25;12.40;;;15.50;89.80;;;;;;5003674;28;20363;-48
2023/10/11 01:36:21;;;;;;;20.83;12.30;;;15.50;89.90;;;;;;5013505;28;20089;-47
2023/10/11 01:38:51;;;;;;;25.17;13.90;;;15.40;90.10;;;;;;5013982;28;20040;-48
2023/10/11 01:41:42;;;;;;;20.52;12.75;;;15.50;90.30;;;;;;5014731;28;20108;-49
2023/10/11 01:44:08;;;;;;;22.92;13.63;;;15.50;90.30;;;;;;5014219;28;20113;-50
2023/10/11 01:46:39;;;;;;;22.38;14.15;;;15.50;90.60;;;;;;5012638;28;20547;-47
2023/10/11 01:49:12;;;;;;;29.23;14.63;;;15.60;90.70;;;;;;5014060;28;20113;-48
2023/10/11 01:51:39;;;;;;;29.27;15.88;;;15.50;90.80;;;;;;4997154;28;20046;-49
2023/10/11 01:54:06;;;;;;;31.55;14.68;;;15.50;90.80;;;;;;4995154;28;20490;-48
2023/10/11 01:56:35;;;;;;;28.23;15.07;;;15.60;90.90;;;;;;5008804;28;20033;-48
2023/10/11 01:59:04;;;;;;;25.23;15.38;;;15.50;91.10;;;;;;5003642;28;20065;-48
2023/10/11 02:01:39;;;;;;;20.10;13.85;;;15.60;91.10;;;;;;4994980;28;20050;-48
2023/10/11 02:04:29;;;;;;;27.10;15.90;;;15.50;91.10;;;;;;5002578;28;20018;-47
2023/10/11 02:06:57;;;;;;;23.75;15.40;;;15.50;91.20;;;;;;4995760;28;20042;-47
2023/10/11 02:09:24;;;;;;;22.75;16.00;;;15.60;91.30;;;;;;4995253;28;20117;-47
2023/10/11 02:11:52;;;;;;;27.58;14.57;;;15.60;91.30;;;;;;4994466;28;20329;-48
2023/10/11 02:14:19;;;;;;;26.70;15.27;;;15.60;91.40;;;;;;5021275;28;20459;-48
2023/10/11 02:16:45;;;;;;;29.10;17.02;;;15.60;91.60;;;;;;5027290;28;20405;-49
2023/10/11 02:19:15;;;;;;;25.77;16.20;;;15.60;91.50;;;;;;5020955;28;20040;-47
2023/10/11 02:21:44;;;;;;;30.30;15.82;;;15.60;91.50;;;;;;5033505;28;20027;-48
2023/10/11 02:24:16;;;;;;;;;;;15.50;91.50;;;;;;5033415;28;20393;-47
2023/10/11 02:26:50;;;;;;;;;;;15.50;91.50;;;;;;5032462;28;19999;-47
2023/10/11 02:29:21;;;;;;;;;;;15.50;91.50;;;;;;5034046;28;19905;-47
2023/10/11 02:31:53;;;;;;;;;;;15.50;91.50;;;;;;5033446;28;19908;-49
2023/10/11 02:34:20;;;;;;;;;;;15.50;91.30;;;;;;5016998;28;19921;-49
2023/10/11 02:36:55;;;;;;;;;;;15.50;91.30;;;;;;5029454;28;19917;-48
2023/10/11 02:39:31;;;;;;;;;;;15.50;91.30;;;;;;5032925;28;19944;-47
2023/10/11 02:41:59;;;;;;;;;;;15.50;91.40;;;;;;5016406;28;19905;-49
2023/10/11 02:44:29;;;;;;;;;;;15.50;91.40;;;;;;5028733;28;19913;-47
2023/10/11 02:46:58;;;;;;;;;;;15.50;91.40;;;;;;5013941;28;19906;-49
2023/10/11 02:49:31;;;;;;;;;;;15.50;91.50;;;;;;5019730;28;19909;-47
2023/10/11 02:51:57;;;;;;;;;;;15.40;91.60;;;;;;5033978;28;19908;-49
2023/10/11 02:54:33;;;;;;;;;;;15.50;91.70;;;;;;5033825;28;19905;-49
2023/10/11 02:57:00;;;;;;;;;;;15.50;91.70;;;;;;5032884;28;20024;-47
2023/10/11 02:59:26;;;;;;;;;;;15.50;91.80;;;;;;5015888;28;20304;-47
2023/10/11 03:02:00;;;;;;;;;;;15.40;91.90;;;;;;5033859;28;19906;-49
2023/10/11 03:04:28;;;;;;;;;;;15.50;92.00;;;;;;5018527;28;19909;-48
2023/10/11 03:06:53;;;;;;;;;;;15.50;92.00;;;;;;5022940;28;19914;-48
2023/10/11 03:09:27;;;;;;;;;;;15.40;91.90;;;;;;5013660;28;19920;-47
2023/10/11 03:11:56;;;;;;;;;;;15.40;92.00;;;;;;5013626;28;20334;-47
2023/10/11 03:14:23;;;;;;;;;;;15.40;92.20;;;;;;5025198;28;19924;-47
2023/10/11 03:16:56;;;;;;;;;;;15.40;92.30;;;;;;5033029;28;19919;-48
2023/10/11 03:19:34;;;;;;;;;;;15.40;92.30;;;;;;5033176;28;20008;-47
2023/10/11 03:22:02;;;;;;;;;;;15.40;92.50;;;;;;5033077;28;19915;-48
2023/10/11 03:24:33;;;;;;;;;;;15.40;92.60;;;;;;5013835;28;20328;-47
2023/10/11 03:27:01;;;;;;;;;;;15.40;92.70;;;;;;5021729;28;19913;-47
2023/10/11 03:29:30;;;;;;;;;;;15.40;92.70;;;;;;5023920;28;19909;-49
2023/10/11 03:31:57;;;;;;;;;;;15.40;92.80;;;;;;5013751;28;20315;-49
2023/10/11 03:34:24;;;;;;;;;;;15.40;92.90;;;;;;5013464;28;19905;-47
2023/10/11 03:36:50;;;;;;;;;;;15.40;93.00;;;;;;5026639;28;19928;-47
2023/10/11 03:39:27;;;;;;;;;;;15.40;93.10;;;;;;5021881;28;19909;-47
2023/10/11 03:44:39;;;;;;;;;;;15.40;93.10;;;;;;5012638;28;19921;-49
2023/10/11 03:47:24;;;;;;;;;;;15.40;93.20;;;;;;5016124;28;20319;-47
2023/10/11 03:49:51;;;;;;;;;;;15.40;93.30;;;;;;5019126;28;19920;-48
2023/10/11 03:52:40;;;;;;;;;;;15.40;93.40;;;;;;5016222;28;19916;-47
2023/10/11 03:55:11;;;;;;;;;;;15.40;93.50;;;;;;5034760;28;19916;-47
2023/10/11 03:57:50;;;;;;;;;;;15.40;93.50;;;;;;5036896;28;19959;-48
2023/10/11 04:02:55;;;;;;;;;;;15.40;93.60;;;;;;5032056;28;19924;-48
2023/10/11 04:05:28;;;;;;;;;;;15.40;93.60;;;;;;5036653;28;19963;-48
2023/10/11 04:07:56;;;;;;;;;;;15.50;93.70;;;;;;5030056;28;19917;-47
2023/10/11 04:10:38;;;;;;;;;;;15.50;93.60;;;;;;5017345;28;19916;-47
2023/10/11 04:13:14;;;;;;;;;;;15.50;93.60;;;;;;5016873;28;19913;-47
2023/10/11 04:15:52;;;;;;;;;;;15.50;93.60;;;;;;5017389;28;19921;-47
2023/10/11 04:18:37;;;;;;;;;;;15.60;93.60;;;;;;5015543;28;19913;-47
2023/10/11 04:21:26;;;;;;;;;;;15.60;93.60;;;;;;5022005;28;20512;-49
2023/10/11 04:23:59;;;;;;;;;;;15.50;93.60;;;;;;5016747;28;20299;-49
2023/10/11 04:29:19;;;;;;;;;;;15.60;93.60;;;;;;5016591;28;19917;-47
2023/10/11 04:34:32;;;;;;;;;;;15.60;93.60;;;;;;5023447;28;19959;-47
2023/10/11 04:36:59;;;;;;;;;;;15.70;93.60;;;;;;5027703;28;19913;-47
2023/10/11 04:39:34;;;;;;;;;;;15.70;93.50;;;;;;5036150;28;19913;-47
2023/10/11 04:42:00;;;;;;;;;;;15.70;93.50;;;;;;5035002;28;19966;-47
2023/10/11 04:47:17;;;;;;;;;;;15.70;93.40;;;;;;5035629;28;19954;-47
2023/10/11 04:49:45;;;;;;;;;;;15.70;93.40;;;;;;5027850;28;19959;-47
2023/10/11 04:52:17;;;;;;;;;;;15.70;93.40;;;;;;5032710;28;19913;-47
2023/10/11 04:54:53;;;;;;;;;;;15.70;93.40;;;;;;5035211;28;19909;-48
2023/10/11 04:58:08;;;;;;;;;;;15.70;93.40;;;;;;5035844;28;19917;-47
2023/10/11 05:00:11;;;;;;;;;;;15.70;93.50;;;;;;5008926;28;19913;-47
2023/10/11 05:02:38;;;;;;;;;;;15.70;93.50;;;;;;5015826;28;19959;-47
2023/10/11 05:05:18;;;;;;;;;;;15.70;93.60;;;;;;5030304;28;19909;-47
2023/10/11 05:07:55;;;;;;;;;;;15.80;93.60;;;;;;5034856;28;19913;-48
2023/10/11 05:13:04;;;;;;;;;;;15.90;93.50;;;;;;5028807;28;19961;-47
2023/10/11 05:15:35;;;;;;;;;;;15.90;93.40;;;;;;5015972;28;19996;-47
2023/10/11 05:18:06;;;;;;;;;;;15.90;93.30;;;;;;5016025;28;20366;-47
2023/10/11 05:23:13;;;;;;;;;;;15.90;93.30;;;;;;5018685;28;20354;-48
2023/10/11 05:28:44;;;;;;;;;;;15.90;93.20;;;;;;5023132;28;20262;-49
2023/10/11 05:52:59;;;;;;;;;;;15.80;93.80;;;;;;5034803;28;19959;-49
2023/10/11 05:55:24;;;;;;;;;;;15.80;93.90;;;;;;5015393;28;20223;-48
2023/10/11 05:57:50;;;;;;;;;;;15.90;93.90;;;;;;5015467;28;19909;-47
2023/10/11 06:00:25;;;;;;;;;;;15.90;93.80;;;;;;5024379;28;20000;-49
2023/10/11 06:02:55;;;;;;;;;;;15.90;93.80;;;;;;5033596;28;19909;-49
2023/10/11 06:05:24;;;;;;;;;;;15.90;93.80;;;;;;5016935;28;19904;-50
2023/10/11 06:08:00;;;;;;;;;;;15.90;93.70;;;;;;5030916;28;19920;-47
2023/10/11 06:10:43;;;;;;;;;;;15.90;93.70;;;;;;5031197;28;20379;-48
2023/10/11 06:13:13;;;;;;;;;;;15.90;93.70;;;;;;5034109;28;19937;-47
2023/10/11 06:15:58;;;;;;;;;;;15.90;93.70;;;;;;5034055;28;19913;-48
2023/10/11 06:18:39;;;;;;;;;;;16.00;93.70;;;;;;5032775;28;19909;-48
2023/10/11 06:21:30;;;;;;;;;;;15.90;93.50;;;;;;5031035;28;19909;-47
2023/10/11 06:24:15;;;;;;;;;;;16.00;93.50;;;;;;5033546;28;20284;-48
2023/10/11 06:29:15;;;;;;;;;;;16.00;93.60;;;;;;5034048;28;19913;-48
2023/10/11 06:31:45;;;;;;;;;;;16.00;93.40;;;;;;5021720;28;19910;-47
2023/10/11 06:34:17;;;;;;;;;;;16.00;93.40;;;;;;5014399;28;20361;-48
2023/10/11 06:36:48;;;;;;;;;;;16.00;93.40;;;;;;5025646;28;19921;-48
2023/10/11 06:42:14;;;;;;;;;;;16.10;93.30;;;;;;5018488;28;19920;-48
2023/10/11 06:44:40;;;;;;;;;;;16.10;93.30;;;;;;5024430;28;20301;-48
2023/10/11 06:47:11;;;;;;;;;;;16.10;93.30;;;;;;5033841;28;20253;-49
2023/10/11 06:50:12;;;;;;;;;;;16.10;93.10;;;;;;5033593;28;19912;-48
2023/10/11 06:52:46;;;;;;;;;;;16.20;93.00;;;;;;5031414;28;19913;-48
2023/10/11 06:57:39;;;;;;;;;;;16.20;92.90;;;;;;5013510;28;20373;-50
2023/10/11 07:03:21;;;;;;;;;;;16.20;92.90;;;;;;4999463;28;19991;-48
2023/10/11 07:06:10;;;;;;;;;;;16.20;92.90;;;;;;5013656;28;20570;-48
2023/10/11 07:08:53;;;;;;;;;;;16.20;92.90;;;;;;5033628;28;19905;-48
2023/10/11 07:11:50;;;;;;;;;;;16.20;92.80;;;;;;5032709;28;20321;-48
2023/10/11 07:14:16;;;;;;;;;;;16.20;92.80;;;;;;5033262;28;19913;-48
2023/10/11 07:16:44;;;;;;;;;;;16.20;92.80;;;;;;5014837;28;20376;-48
2023/10/11 07:19:11;;;;;;;;;;;16.20;92.80;;;;;;5016114;28;20334;-48
2023/10/11 07:22:02;;;;;;;;;;;16.20;92.80;;;;;;5033019;28;20227;-49
2023/10/11 07:27:13;;;;;;;;;;;16.20;92.80;;;;;;5017232;28;19920;-50
2023/10/11 07:29:44;;;;;;;;;;;16.20;92.80;;;;;;5014878;28;19972;-48
2023/10/11 07:32:13;;;;;;;;;;;16.30;92.80;;;;;;5016825;28;19913;-48
2023/10/11 07:34:42;;;;;;;;;;;16.30;92.70;;;;;;5026272;28;19948;-48
2023/10/11 07:37:12;;;;;;;;;;;16.30;92.60;;;;;;5024951;28;20388;-48
2023/10/11 07:39:40;;;;;;;;;;;16.40;92.60;;;;;;5037156;28;20208;-48
2023/10/11 07:42:08;;;;;;;;;;;16.40;92.50;;;;;;5036837;28;19932;-48
2023/10/11 07:44:38;;;;;;;;;;;16.40;92.50;;;;;;5036839;28;19909;-49
2023/10/11 07:47:16;;;;;;;;;;;16.40;92.40;;;;;;5035683;28;20545;-48
2023/10/11 07:49:42;;;;;;;;;;;16.40;92.30;;;;;;5019771;28;19920;-50
2023/10/11 07:52:09;;;;;;;;;;;16.30;92.40;;;;;;5036534;28;19916;-48
2023/10/11 07:54:39;;;;;;;;;;;16.40;92.40;;;;;;5029721;28;19909;-48
2023/10/11 07:57:15;;;;;;;;;;;16.30;92.40;;;;;;5025671;28;20003;-49
2023/10/11 07:59:51;;;;;;;;;;;16.40;92.50;;;;;;5020876;28;19910;-48
2023/10/11 08:02:26;;;;;;;;;;;16.40;92.40;;;;;;5035072;28;19913;-47
2023/10/11 08:04:54;;;;;;;;;;;16.50;92.40;;;;;;5036057;28;19909;-47
2023/10/11 08:07:21;;;;;;;;;;;16.50;92.30;;;;;;5035556;28;20398;-49
2023/10/11 08:09:52;;;;;;;;;;;16.50;92.30;;;;;;5020869;28;19909;-48
2023/10/11 08:12:23;;;;;;;;;;;16.60;92.20;;;;;;5016615;28;19964;-49
2023/10/11 08:14:56;;;;;;;;;;;16.60;92.10;;;;;;5013417;28;19917;-48
2023/10/11 08:17:27;;;;;;;;;;;16.70;92.00;;;;;;4997751;28;20020;-48
2023/10/11 08:19:55;;;;;;;;;;;16.70;91.90;;;;;;4997414;28;19905;-48
2023/10/11 08:22:22;;;;;;;;;;;16.70;91.90;;;;;;5028805;28;19905;-47
2023/10/11 08:24:49;;;;;;;;;;;16.80;91.90;;;;;;5016442;28;19909;-48
2023/10/11 08:27:35;;;;;;;;;;;16.80;91.70;;;;;;5015420;28;19910;-48
2023/10/11 08:30:09;;;;;;;;;;;16.90;91.60;;;;;;5017071;28;20442;-49
2023/10/11 08:32:43;;;;;;;;;;;16.90;91.50;;;;;;5000576;28;19909;-48
2023/10/11 08:35:48;;;;;;;;;;;16.90;91.50;;;;;;4996596;28;19918;-48
2023/10/11 08:38:04;;;;;;;;;;;16.90;91.40;;;;;;5011477;28;19909;-49
2023/10/11 08:40:37;;;;;;;;;;;16.90;91.40;;;;;;5014284;28;19910;-48
2023/10/11 08:43:04;;;;;;;;;;;16.90;91.50;;;;;;5016260;28;19910;-48
2023/10/11 08:45:48;;;;;;;;;;;16.90;91.40;;;;;;5001542;28;19996;-48
2023/10/11 08:48:16;;;;;;;;;;;16.90;91.40;;;;;;5014610;28;19917;-48
2023/10/11 08:50:55;;;;;;;;;;;16.90;91.40;;;;;;5015912;28;19921;-50
2023/10/11 08:53:31;;;;;;;;;;;16.90;91.30;;;;;;5015151;28;20309;-51
2023/10/11 08:56:00;;;;;;;;;;;16.90;91.30;;;;;;5015355;28;19959;-49
2023/10/11 08:58:30;;;;;;;;;;;16.90;91.30;;;;;;4996186;28;19929;-48
2023/10/11 09:01:07;;;;;;;;;;;16.90;91.40;;;;;;4995795;28;20003;-50
2023/10/11 09:03:40;;;;;;;;;;;16.90;91.30;;;;;;4996694;28;20043;-52
2023/10/11 09:06:18;;;;;;;;;;;16.90;91.40;;;;;;4996855;28;19920;-50
2023/10/11 09:08:47;;;;;;;;;;;16.90;91.10;;;;;;4994650;28;20001;-48
2023/10/11 09:14:09;;;;;;;;;;;16.90;91.10;;;;;;5027265;28;19928;-49
2023/10/11 09:16:36;;;;;;;;;;;17.00;90.90;;;;;;5028674;28;19921;-48
2023/10/11 09:19:11;;;;;;;;;;;17.00;90.80;;;;;;5014521;28;19909;-49
2023/10/11 09:21:38;;;;;;;;;;;17.00;90.60;;;;;;5025322;28;19967;-49
2023/10/11 09:24:22;;;;;;;;;;;17.00;90.40;;;;;;5016981;28;19905;-49
2023/10/11 09:26:49;;;;;;;;;;;17.00;90.30;;;;;;5018478;28;19952;-48
2023/10/11 09:29:23;;;;;;;;;;;17.00;90.20;;;;;;5017200;28;19924;-48
2023/10/11 09:31:59;;;;;;;;;;;17.10;90.20;;;;;;5034876;28;20349;-50
2023/10/11 09:34:34;;;;;;;;;;;17.00;90.30;;;;;;5030912;28;20246;-50
2023/10/11 09:37:02;;;;;;;;;;;17.00;90.50;;;;;;5026469;28;20424;-51
2023/10/11 09:39:29;;;;;;;;;;;17.00;90.90;;;;;;5019701;28;19909;-48
2023/10/11 09:42:06;;;;;;;;;;;17.00;90.90;;;;;;5015281;28;19936;-49
2023/10/11 09:44:44;;;;;;;;;;;17.00;91.00;;;;;;5014969;28;20311;-48
2023/10/11 09:47:16;;;;;;;;;;;17.00;91.10;;;;;;5027782;28;20356;-48
2023/10/11 09:49:42;;;;;;;;;;;17.10;91.10;;;;;;5034903;28;19917;-50
2023/10/11 09:52:23;;;;;;;;;;;17.20;90.80;;;;;;5031101;28;19996;-48
2023/10/11 09:55:02;;;;;;;;;;;17.20;90.50;;;;;;5014188;28;19913;-48
2023/10/11 09:57:32;;;;;;;;;;;17.30;90.20;;;;;;5027168;28;19913;-48
2023/10/11 10:00:18;;;;;;;;;;;17.30;89.80;;;;;;5025877;28;19972;-48
2023/10/11 10:02:47;;;;;;;;;;;17.40;89.30;;;;;;5014556;28;20330;-49
2023/10/11 10:05:15;;;;;;;;;;;17.50;88.50;;;;;;4997646;28;19940;-49
2023/10/11 10:07:47;;;;;;;;;;;17.50;88.00;;;;;;5026975;28;20350;-47
2023/10/11 10:10:27;;;;;;;;;;;17.60;88.10;;;;;;5021948;28;20400;-50
2023/10/11 10:13:09;;;;;;;;;;;17.60;87.50;;;;;;5014323;28;19964;-50
2023/10/11 10:15:53;;;;;;;;;;;17.60;87.10;;;;;;5015367;28;19929;-49
2023/10/11 10:18:19;;;;;;;;;;;17.70;87.10;;;;;;5030931;28;19909;-49
2023/10/11 10:20:47;;;;;;;;;;;17.70;87.00;;;;;;5034009;28;20230;-49
2023/10/11 10:23:22;;;;;;;;;;;17.70;86.50;;;;;;5016306;28;19917;-48
2023/10/11 10:25:51;;;;;;;;;;;17.70;86.50;;;;;;5015276;28;19909;-48
2023/10/11 10:28:32;;;;;;;;;;;17.80;86.90;;;;;;5014398;28;20335;-48
2023/10/11 10:31:11;;;;;;;;;;;17.80;86.70;;;;;;5023465;28;19919;-48
2023/10/11 10:33:38;;;;;;;;;;;17.80;86.60;;;;;;5013931;28;19916;-49
2023/10/11 10:36:24;;;;;;;;;;;17.80;87.00;;;;;;5014556;28;19917;-48
2023/10/11 10:39:03;;;;;;;;;;;17.90;87.00;;;;;;5019405;28;20314;-48
2023/10/11 10:41:31;;;;;;;;;;;18.00;87.20;;;;;;5014115;28;20334;-48
2023/10/11 10:44:18;;;;;;;;;;;18.10;87.10;;;;;;5019803;28;19917;-50
2023/10/11 10:46:43;;;;;;;;;;;18.10;87.20;;;;;;5033022;28;19913;-48
2023/10/11 10:49:11;;;;;;;;;;;18.30;87.20;;;;;;5016470;28;19904;-50
2023/10/11 10:51:39;;;;;;;;;;;18.40;86.80;;;;;;5033004;28;19909;-51
2023/10/11 10:54:14;;;;;;;;;;;18.50;86.50;;;;;;5033572;28;19935;-49
2023/10/11 10:56:40;;;;;;;;;;;18.60;86.60;;;;;;5033605;28;19927;-51
2023/10/11 10:59:12;;;;;;;;;;;18.70;86.30;;;;;;5032456;28;20389;-49
2023/10/11 11:01:38;;;;;;;;;;;18.70;85.90;;;;;;5013679;28;19905;-54
2023/10/11 11:04:08;;;;;;;;;;;18.80;85.80;;;;;;4996465;28;19963;-49
2023/10/11 11:06:53;;;;;;;;;;;18.70;85.10;;;;;;5013921;28;19906;-52
2023/10/11 11:09:25;;;;;;;;;;;18.60;85.50;;;;;;5017871;28;19910;-49
2023/10/11 11:11:55;;;;;;;;;;;18.50;85.80;;;;;;5013386;28;19906;-48
2023/10/11 11:14:23;;;;;;;;;;;18.40;86.40;;;;;;5008583;28;19929;-49
2023/10/11 11:17:09;;;;;;;;;;;18.50;86.00;;;;;;4993923;28;19925;-48
2023/10/11 11:19:36;;;;;;;;;;;18.60;85.80;;;;;;5028080;28;20014;-49
2023/10/11 11:22:15;;;;;;;;;;;18.60;85.10;;;;;;5013334;28;19916;-49
2023/10/11 11:24:43;;;;;;;;;;;18.60;85.60;;;;;;5000373;28;19916;-50
2023/10/11 11:27:25;;;;;;;;;;;18.60;85.30;;;;;;4994047;28;19906;-48
2023/10/11 11:30:02;;;;;;;;;;;18.70;85.30;;;;;;4998663;28;20013;-48
2023/10/11 11:32:39;;;;;;;;;;;18.80;85.20;;;;;;5028062;28;19909;-48
2023/10/11 11:35:30;;;;;;;;;;;18.80;85.00;;;;;;5001820;28;19921;-49
2023/10/11 11:38:06;;;;;;;;;;;18.90;85.10;;;;;;4996133;28;19921;-48
2023/10/11 11:40:47;;;;;;;;;;;18.90;84.30;;;;;;5012860;28;19913;-48
2023/10/11 11:43:17;;;;;;;;;;;18.90;84.50;;;;;;5013171;28;19914;-48
2023/10/11 11:45:44;;;;;;;;;;;18.90;84.80;;;;;;5028727;28;19917;-49
2023/10/11 11:48:13;;;;;;;;;;;18.90;85.00;;;;;;5012427;28;19924;-48
2023/10/11 11:50:42;;;;;;;;;;;18.80;84.80;;;;;;5012245;28;19921;-48
2023/10/11 11:53:09;;;;;;;;;;;18.70;84.80;;;;;;5011413;28;19968;-49
2023/10/11 11:55:41;;;;;;;;;;;18.70;85.10;;;;;;5013163;28;19924;-49
2023/10/11 11:58:16;;;;;;;;;;;18.70;85.30;;;;;;5010206;28;20000;-48
2023/10/11 12:03:52;;;;;;;;;;;18.80;85.20;;;;;;4982472;28;20457;-50
2023/10/11 12:06:23;;;;;;;;;;;18.70;85.30;;;;;;5012755;28;19919;-48
2023/10/11 12:08:57;;;;;;;;;;;18.60;85.30;;;;;;5002775;28;19916;-48
2023/10/11 12:11:32;;;;;;;;;;;18.50;85.50;;;;;;5013075;28;19913;-48
2023/10/11 12:14:00;;;;;;;;;;;18.50;86.00;;;;;;5024047;28;19956;-49
2023/10/11 12:16:26;;;;;;;;;;;18.50;86.20;;;;;;5016763;28;20402;-49
2023/10/11 12:19:00;;;;;;;;;;;18.60;86.10;;;;;;5036749;28;19917;-48
2023/10/11 12:21:27;;;;;;;;;;;18.60;85.80;;;;;;5035466;28;19971;-49
2023/10/11 12:23:54;;;;;;;;;;;18.60;85.90;;;;;;5036164;28;19935;-47
2023/10/11 12:26:26;;;;;;;;;;;18.60;85.30;;;;;;5036586;28;20498;-48
2023/10/11 12:28:53;;;;;;;;;;;18.60;85.20;;;;;;5035603;28;19967;-48
2023/10/11 12:31:18;;;;;;;;;;;18.60;85.40;;;;;;5036081;28;20055;-49
2023/10/11 12:33:46;;;;;;;;;;;18.60;85.80;;;;;;5036451;28;20322;-48
2023/10/11 12:36:16;;;;;;;;;;;18.60;85.70;;;;;;5035572;28;19920;-52
2023/10/11 12:38:45;;;;;;;;;;;18.50;85.10;;;;;;5036186;28;20054;-49
2023/10/11 12:41:15;;;;;;;;;;;18.50;85.30;;;;;;5036019;28;19909;-48
2023/10/11 12:43:45;;;;;;;;;;;18.50;85.70;;;;;;5035415;28;19913;-48
2023/10/11 12:46:11;;;;;;;;;;;18.40;85.50;;;;;;5035775;28;20401;-49
2023/10/11 12:48:37;;;;;;;;;;;18.50;85.50;;;;;;5035831;28;20003;-48
2023/10/11 12:51:05;;;;;;;;;;;18.50;85.50;;;;;;5023206;28;20009;-48
2023/10/11 12:53:31;;;;;;;;;;;18.50;85.70;;;;;;5018770;28;19915;-49
2023/10/11 12:55:58;;;;;;;;;;;18.60;85.50;;;;;;5035742;28;19913;-48
2023/10/11 12:58:38;;;;;;;;;;;18.50;85.60;;;;;;5035389;28;19916;-48
2023/10/11 13:01:11;;;;;;;;;;;18.40;85.50;;;;;;5035512;28;20318;-48
2023/10/11 13:03:40;;;;;;;;;;;18.40;86.10;;;;;;5026830;28;19910;-48
2023/10/11 13:06:12;;;;;;;;;;;18.40;86.60;;;;;;5017331;28;19917;-48
2023/10/11 13:08:37;;;;;;;;;;;18.40;86.10;;;;;;5014992;28;19909;-50
2023/10/11 13:11:05;;;;;;;;;;;18.50;86.20;;;;;;5022845;28;19939;-50
2023/10/11 13:13:35;;;;;;;;;;;18.50;86.00;;;;;;5026175;28;19913;-48
2023/10/11 13:16:01;;;;;;;;;;;18.50;85.40;;;;;;5015592;28;20454;-48
2023/10/11 13:18:27;;;;;;;;;;;18.50;85.50;;;;;;5015312;28;19919;-48
2023/10/11 13:20:59;;;;;;;;;;;18.50;85.60;;;;;;5004000;28;20381;-46
2023/10/11 13:23:34;;;;;;;;;;;18.50;86.10;;;;;;5017472;28;19964;-44
2023/10/11 13:26:08;;;;;;;;;;;18.50;87.20;;;;;;5035351;28;19913;-46
2023/10/11 13:28:37;;;;;;;;;;;18.30;88.10;;;;;;5016753;28;20326;-48
2023/10/11 13:31:09;;;;;;;;;;;18.10;89.20;;;;;;5018524;28;19914;-46
2023/10/11 13:33:35;;;;;;;;;;;17.90;89.80;;;;;;5034384;28;20287;-48
2023/10/11 13:36:06;;;;;;;;;;;17.90;90.40;;;;;;5033694;28;19959;-49
2023/10/11 13:38:31;;;;;;;;;;;17.70;91.10;;;;;;5034527;28;20369;-48
2023/10/11 13:41:00;;;;;;;;;;;17.60;91.60;;;;;;5016900;28;19913;-46
2023/10/11 13:43:27;;;;;;;;;;;17.50;91.80;;;;;;5034835;28;19923;-49
2023/10/11 13:46:07;;;;;;;;;;;17.50;92.30;;;;;;5034934;28;19916;-49
2023/10/11 13:48:39;;;;;;;;;;;17.40;92.50;;;;;;5026574;28;20609;-47
2023/10/11 13:51:16;;;;;;;;;;;17.30;92.80;;;;;;5028617;28;20243;-50
2023/10/11 13:53:44;;;;;;;;;;;17.20;93.10;;;;;;5024598;28;20413;-52
2023/10/11 13:56:24;;;;;;;;;;;17.20;93.40;;;;;;5014834;28;20012;-54
2023/10/11 13:58:59;;;;;;;;;;;17.20;93.60;;;;;;5017559;28;20273;-48
2023/10/11 14:04:15;;;;;;;;;;;17.10;94.10;;;;;;5034453;28;20470;-47
2023/10/11 14:09:30;;;;;;;;;;;17.10;94.60;;;;;;5014674;28;19917;-48
2023/10/11 14:11:57;;;;;;;;;;;17.20;94.70;;;;;;5014883;28;20290;-47
2023/10/11 14:14:24;;;;;;;;;;;17.20;94.80;;;;;;5014390;28;19976;-47
2023/10/11 14:16:53;;;;;;;;;;;17.20;94.90;;;;;;5015101;28;19927;-48
2023/10/11 14:19:24;;;;;;;;;;;17.30;95.00;;;;;;5014450;28;20223;-47
2023/10/11 14:21:51;;;;;;;;;;;17.20;95.00;;;;;;5025397;28;19913;-47
2023/10/11 14:24:17;;;;;;;;;;;17.30;95.00;;;;;;5014539;28;19905;-47
2023/10/11 14:26:44;;;;;;;;;;;17.30;95.10;;;;;;5020694;28;20685;-47
2023/10/11 14:29:10;;;;;;;;;;;17.40;95.10;;;;;;5022886;28;19909;-50
2023/10/11 14:31:37;;;;;;;;;;;17.30;94.90;;;;;;5013310;28;19913;-47
2023/10/11 14:34:09;;;;;;;;;;;17.40;94.80;;;;;;5031570;28;19917;-48
2023/10/11 14:36:35;;;;;;;;;;;17.40;94.60;;;;;;5031245;28;19912;-47
2023/10/11 14:39:08;;;;;;;;;;;17.40;94.30;;;;;;5033574;28;20000;-47
2023/10/11 14:41:37;;;;;;;;;;;17.40;94.00;;;;;;5033924;28;19952;-47
2023/10/11 14:44:08;;;;;;;;;;;17.40;93.80;;;;;;5022329;28;19921;-48
2023/10/11 14:46:38;;;;;;;;;;;17.40;93.30;;;;;;5014095;28;19916;-49
2023/10/11 14:49:04;;;;;;;;;;;17.40;93.20;;;;;;5014173;28;19906;-47
2023/10/11 14:51:31;;;;;;;;;;;17.40;93.10;;;;;;5025840;28;20003;-47
2023/10/11 14:53:58;;;;;;;;;;;17.40;93.20;;;;;;5032885;28;20346;-49
2023/10/11 14:56:25;;;;;;;;;;;17.40;93.20;;;;;;5033355;28;19912;-47
2023/10/11 14:58:52;;;;;;;;;;;17.50;93.10;;;;;;5033884;28;19970;-49
2023/10/11 15:01:20;;;;;;;;;;;17.60;93.10;;;;;;5023356;28;19913;-49
2023/10/11 15:03:47;;;;;;;;;;;17.60;93.00;;;;;;5023468;28;19916;-48
2023/10/11 15:06:19;;;;;;;;;;;17.50;92.70;;;;;;5023908;28;19931;-47
2023/10/11 15:08:45;;;;;;;;;;;17.50;92.60;;;;;;5033267;28;19905;-48
2023/10/11 15:11:13;;;;;;;;;;;17.50;92.80;;;;;;5015338;28;19958;-48
2023/10/11 15:13:39;;;;;;;;;;;17.60;92.80;;;;;;5032843;28;20310;-47
2023/10/11 15:16:06;;;;;;;;;;;17.50;92.50;;;;;;5016113;28;19940;-48
2023/10/11 15:18:34;;;;;;;;;;;17.50;92.40;;;;;;5033340;28;20350;-47
2023/10/11 15:21:02;;;;;;;;;;;17.40;92.40;;;;;;5023697;28;20003;-47
2023/10/11 15:23:29;;;;;;;;;;;17.40;92.40;;;;;;5033176;28;19905;-47
2023/10/11 15:25:55;;;;;;;;;;;17.40;92.30;;;;;;5032424;28;19945;-49
2023/10/11 15:28:24;;;;;;;;;;;17.40;92.50;;;;;;5024851;28;20257;-49
2023/10/11 15:30:50;;;;;;;;;;;17.40;92.60;;;;;;5014476;28;20319;-47
2023/10/11 15:33:26;;;;;;;;;;;17.40;92.60;;;;;;5033333;28;19996;-47
2023/10/11 15:35:56;;;;;;;;;;;17.40;92.70;;;;;;5032927;28;20373;-48
2023/10/11 15:38:24;;;;;;;;;;;17.40;92.80;;;;;;5031697;28;19947;-47